Time;durP1;ratioP1;P1;durP2;ratioP2;P2;SDS_P1;SDS_P2;PMS_P1;PMS_P2;Temp;Humidity;BMP_temperature;BMP_pressure;BME280_temperature;BME280_humidity;BME280_pressure;Samples;Min_cycle;Max_cycle;Signal;HPM_P1;HPM_P2
2021/07/13 00:00:26;;;;;;;25.45;17.30;;;24.00;83.20;;;;;;5016012;28;20525;-69
2021/07/13 00:02:52;;;;;;;26.40;18.15;;;24.00;83.40;;;;;;5016026;28;20029;-69
2021/07/13 00:05:19;;;;;;;27.55;18.88;;;24.00;83.50;;;;;;5016876;28;20111;-69
2021/07/13 00:07:47;;;;;;;27.95;17.33;;;24.00;83.60;;;;;;5013149;28;20451;-69
2021/07/13 00:10:16;;;;;;;30.40;18.55;;;23.90;83.70;;;;;;5012299;28;20037;-69
2021/07/13 00:12:42;;;;;;;27.05;18.33;;;23.90;83.80;;;;;;5013860;28;20112;-69
2021/07/13 00:15:09;;;;;;;31.98;15.75;;;23.90;83.90;;;;;;5012997;28;20153;-69
2021/07/13 00:17:35;;;;;;;26.63;14.02;;;23.90;83.60;;;;;;5018872;28;20563;-69
2021/07/13 00:20:01;;;;;;;23.60;14.52;;;23.80;82.50;;;;;;5031542;28;20026;-69
2021/07/13 00:22:27;;;;;;;29.50;15.30;;;23.80;82.00;;;;;;5028779;28;20599;-70
2021/07/13 00:24:52;;;;;;;24.50;14.40;;;23.80;82.00;;;;;;5030988;28;20041;-69
2021/07/13 00:27:18;;;;;;;24.83;13.65;;;23.70;81.90;;;;;;5029076;28;20022;-69
2021/07/13 00:29:43;;;;;;;32.72;14.82;;;23.70;81.90;;;;;;5030071;28;20036;-69
2021/07/13 00:32:09;;;;;;;19.98;14.32;;;23.70;81.80;;;;;;5017255;28;20045;-69
2021/07/13 00:34:35;;;;;;;24.38;13.88;;;23.70;81.90;;;;;;5020993;28;20021;-69
2021/07/13 00:37:00;;;;;;;23.45;13.88;;;23.60;81.90;;;;;;5027814;28;20540;-69
2021/07/13 00:39:26;;;;;;;26.55;13.18;;;23.60;81.90;;;;;;5038051;28;20029;-69
2021/07/13 00:41:51;;;;;;;22.25;13.93;;;23.60;81.70;;;;;;5026273;28;20040;-69
2021/07/13 00:44:19;;;;;;;30.92;14.10;;;23.60;81.70;;;;;;5028532;28;20078;-69
2021/07/13 00:46:47;;;;;;;20.55;13.45;;;23.50;81.80;;;;;;5029860;28;20389;-69
2021/07/13 00:49:14;;;;;;;27.52;14.52;;;23.50;82.00;;;;;;5024637;28;20038;-69
2021/07/13 00:51:41;;;;;;;29.02;15.07;;;23.50;82.30;;;;;;5021397;28;20048;-69
2021/07/13 00:54:09;;;;;;;20.40;14.30;;;23.50;82.70;;;;;;5035385;28;20121;-69
2021/07/13 00:56:41;;;;;;;32.45;13.65;;;23.50;83.00;;;;;;5018632;28;20034;-69
2021/07/13 00:59:08;;;;;;;25.02;14.68;;;23.40;83.30;;;;;;5017560;28;20462;-69
2021/07/13 01:01:34;;;;;;;24.92;14.18;;;23.40;83.50;;;;;;5015830;28;20539;-69
2021/07/13 01:04:02;;;;;;;27.48;14.95;;;23.40;83.70;;;;;;5013332;28;20034;-69
2021/07/13 01:06:42;;;;;;;26.13;14.90;;;23.50;83.90;;;;;;5018722;28;20042;-69
2021/07/13 01:09:12;;;;;;;27.77;14.80;;;23.40;84.00;;;;;;5017616;28;20090;-69
2021/07/13 01:11:48;;;;;;;27.15;16.05;;;23.40;84.00;;;;;;5032191;28;20116;-69
2021/07/13 01:14:27;;;;;;;26.13;15.07;;;23.40;84.10;;;;;;5020395;28;20485;-69
2021/07/13 01:17:32;;;;;;;25.95;16.05;;;23.40;84.20;;;;;;5012962;28;20033;-69
2021/07/13 01:20:27;;;;;;;26.27;15.95;;;23.50;84.20;;;;;;5010715;28;20398;-69
2021/07/13 01:23:07;;;;;;;27.23;16.60;;;23.40;84.40;;;;;;5023041;28;20032;-69
2021/07/13 01:25:46;;;;;;;29.33;18.88;;;23.40;84.40;;;;;;5030815;28;20042;-69
2021/07/13 01:28:23;;;;;;;37.17;17.83;;;23.30;84.40;;;;;;5018417;28;20552;-69
2021/07/13 01:31:00;;;;;;;36.88;18.25;;;23.30;84.50;;;;;;5030574;28;20039;-69
2021/07/13 01:33:27;;;;;;;29.58;19.25;;;23.30;84.60;;;;;;5019059;28;20060;-69
2021/07/13 01:36:18;;;;;;;31.48;18.90;;;23.30;84.60;;;;;;5018591;28;20038;-69
2021/07/13 01:38:47;;;;;;;29.83;17.90;;;23.30;84.70;;;;;;5022753;28;20022;-69
2021/07/13 01:41:18;;;;;;;31.00;18.40;;;23.30;84.60;;;;;;5026518;28;20083;-69
2021/07/13 01:43:46;;;;;;;33.00;18.15;;;23.30;84.70;;;;;;5030921;28;20025;-69
2021/07/13 01:46:13;;;;;;;30.02;17.88;;;23.30;84.70;;;;;;5035043;28;20096;-69
2021/07/13 01:48:40;;;;;;;31.30;18.00;;;23.20;84.70;;;;;;5023651;28;20064;-70
2021/07/13 01:51:06;;;;;;;32.75;18.05;;;23.20;84.70;;;;;;5018577;28;20037;-69
2021/07/13 01:53:32;;;;;;;29.27;17.38;;;23.20;84.80;;;;;;5024072;28;20486;-69
2021/07/13 01:56:00;;;;;;;26.20;17.77;;;23.20;84.70;;;;;;5018666;28;20113;-69
2021/07/13 01:58:27;;;;;;;26.23;17.55;;;23.20;84.90;;;;;;5022110;28;20041;-70
2021/07/13 02:00:56;;;;;;;29.60;17.83;;;23.20;84.90;;;;;;5022158;28;20088;-69
2021/07/13 02:03:24;;;;;;;26.20;17.05;;;23.20;85.00;;;;;;5024073;28;20045;-69
2021/07/13 02:05:51;;;;;;;29.45;17.02;;;23.20;85.00;;;;;;5021380;28;20073;-69
2021/07/13 02:08:17;;;;;;;30.88;17.15;;;23.20;85.00;;;;;;5020631;28;20089;-69
2021/07/13 02:10:43;;;;;;;26.75;17.02;;;23.20;85.00;;;;;;5022853;28;20033;-69
2021/07/13 02:13:11;;;;;;;24.23;16.73;;;23.10;84.90;;;;;;5020381;28;20504;-69
2021/07/13 02:15:38;;;;;;;31.73;16.77;;;23.20;85.00;;;;;;5017739;28;20054;-69
2021/07/13 02:18:04;;;;;;;25.58;17.13;;;23.10;85.00;;;;;;5018907;28;20030;-69
2021/07/13 02:20:30;;;;;;;29.38;17.23;;;23.10;85.00;;;;;;5018541;28;20049;-69
2021/07/13 02:22:56;;;;;;;33.08;17.25;;;23.10;85.00;;;;;;5021809;28;20032;-69
2021/07/13 02:25:21;;;;;;;27.83;16.83;;;23.10;85.00;;;;;;5017727;28;20050;-69
2021/07/13 02:28:13;;;;;;;29.33;16.52;;;23.10;85.00;;;;;;5018575;28;20125;-69
2021/07/13 02:30:43;;;;;;;36.65;18.92;;;23.10;85.00;;;;;;5025635;28;20094;-69
2021/07/13 02:33:26;;;;;;;30.83;17.20;;;23.10;85.00;;;;;;5016835;28;20692;-69
2021/07/13 02:35:56;;;;;;;30.23;19.00;;;23.00;85.00;;;;;;5042501;28;20025;-69
2021/07/13 02:38:23;;;;;;;28.60;19.48;;;23.00;85.10;;;;;;5036078;28;20026;-69
2021/07/13 02:40:50;;;;;;;33.50;18.42;;;23.00;85.30;;;;;;5025966;28;20028;-69
2021/07/13 02:43:17;;;;;;;28.45;19.35;;;23.00;85.30;;;;;;5040299;28;20366;-69
2021/07/13 02:45:44;;;;;;;38.33;21.00;;;23.00;85.30;;;;;;5040058;28;20030;-69
2021/07/13 02:48:12;;;;;;;27.70;17.65;;;23.00;85.30;;;;;;5014874;28;20037;-69
2021/07/13 02:50:40;;;;;;;30.35;18.75;;;23.00;85.20;;;;;;5031329;28;20045;-69
2021/07/13 02:53:08;;;;;;;31.83;20.40;;;23.00;85.20;;;;;;5013939;28;20367;-69
2021/07/13 02:55:34;;;;;;;35.67;21.15;;;23.00;85.30;;;;;;5018476;28;20029;-69
2021/07/13 02:58:03;;;;;;;27.65;19.98;;;22.90;85.30;;;;;;5015248;28;20030;-69
2021/07/13 03:00:30;;;;;;;33.78;20.48;;;22.90;85.30;;;;;;5013737;28;20036;-69
2021/07/13 03:02:56;;;;;;;29.73;19.17;;;22.90;85.30;;;;;;5014778;28;20034;-69
2021/07/13 03:05:26;;;;;;;36.33;20.50;;;22.90;85.10;;;;;;5019824;28;20042;-69
2021/07/13 03:07:53;;;;;;;36.08;20.75;;;22.90;84.90;;;;;;5021623;28;20040;-69
2021/07/13 03:10:20;;;;;;;30.77;22.52;;;22.90;84.90;;;;;;5018705;28;20030;-69
2021/07/13 03:12:47;;;;;;;33.88;23.55;;;22.90;85.00;;;;;;5019611;28;20026;-69
2021/07/13 03:15:13;;;;;;;41.05;24.73;;;22.90;85.00;;;;;;5012706;28;20050;-69
2021/07/13 03:17:39;;;;;;;38.53;25.00;;;22.80;85.10;;;;;;5016498;28;20100;-69
2021/07/13 03:20:06;;;;;;;36.92;24.65;;;22.90;85.30;;;;;;5016333;28;20408;-69
2021/07/13 03:22:37;;;;;;;35.25;23.98;;;22.80;85.30;;;;;;5018375;28;20369;-69
2021/07/13 03:25:05;;;;;;;39.38;26.13;;;22.80;85.50;;;;;;5017491;28;20128;-69
2021/07/13 03:27:32;;;;;;;36.90;24.63;;;22.80;85.60;;;;;;5017307;28;20811;-69
2021/07/13 03:30:00;;;;;;;44.90;25.85;;;22.80;85.60;;;;;;5015285;28;20025;-69
2021/07/13 03:32:27;;;;;;;48.33;25.95;;;22.80;86.20;;;;;;5016870;28;20030;-69
2021/07/13 03:34:55;;;;;;;38.95;24.27;;;22.80;85.50;;;;;;5017352;28;20038;-69
2021/07/13 03:37:21;;;;;;;37.40;24.77;;;22.80;85.30;;;;;;5015954;28;20033;-69
2021/07/13 03:39:48;;;;;;;50.42;25.65;;;22.80;85.10;;;;;;5013253;28;20036;-69
2021/07/13 03:42:15;;;;;;;41.42;27.30;;;22.80;85.10;;;;;;5021696;28;20080;-68
2021/07/13 03:44:44;;;;;;;41.65;26.92;;;22.70;85.00;;;;;;5017261;28;20030;-68
2021/07/13 03:47:12;;;;;;;41.90;28.00;;;22.70;85.10;;;;;;5012677;28;20044;-69
2021/07/13 03:49:38;;;;;;;49.33;28.60;;;22.70;85.20;;;;;;5016623;28;20065;-70
2021/07/13 03:52:04;;;;;;;47.50;29.30;;;22.70;85.30;;;;;;5018524;28;20065;-69
2021/07/13 03:54:29;;;;;;;48.13;26.45;;;22.70;85.30;;;;;;5021531;28;20028;-69
2021/07/13 03:56:55;;;;;;;40.08;24.55;;;22.70;85.20;;;;;;5025583;28;20025;-70
2021/07/13 03:59:21;;;;;;;41.80;26.65;;;22.70;85.20;;;;;;5018748;28;20013;-68
2021/07/13 04:01:47;;;;;;;43.55;26.65;;;22.60;85.10;;;;;;5014919;28;20481;-68
2021/07/13 04:04:13;;;;;;;41.47;26.13;;;22.70;85.20;;;;;;5016112;28;20544;-68
2021/07/13 04:06:39;;;;;;;45.20;26.63;;;22.60;85.30;;;;;;5015858;28;20116;-68
2021/07/13 04:09:07;;;;;;;43.83;27.77;;;22.70;85.50;;;;;;5014402;28;20029;-69
2021/07/13 04:11:33;;;;;;;40.85;25.77;;;22.60;85.60;;;;;;5014349;28;20552;-68
2021/07/13 04:13:59;;;;;;;45.42;26.35;;;22.60;85.70;;;;;;5017327;28;20029;-69
2021/07/13 04:16:25;;;;;;;43.20;25.63;;;22.60;85.80;;;;;;5016747;28;20072;-69
2021/07/13 04:18:50;;;;;;;39.85;25.90;;;22.60;85.80;;;;;;5014553;28;20029;-69
2021/07/13 04:21:16;;;;;;;39.15;23.90;;;22.60;85.90;;;;;;5019791;28;20021;-70
2021/07/13 04:23:42;;;;;;;37.35;24.42;;;22.60;85.90;;;;;;5026295;28;20030;-71
2021/07/13 04:26:08;;;;;;;37.80;24.02;;;22.60;86.00;;;;;;5018134;28;20030;-71
2021/07/13 04:28:34;;;;;;;34.08;22.92;;;22.60;85.90;;;;;;5018581;28;20435;-70
2021/07/13 04:31:01;;;;;;;37.22;23.15;;;22.60;86.00;;;;;;5017864;28;20034;-71
2021/07/13 04:33:26;;;;;;;38.58;24.00;;;22.60;86.10;;;;;;5012244;28;20022;-71
2021/07/13 04:35:55;;;;;;;46.33;24.65;;;22.50;86.30;;;;;;5016917;28;20462;-70
2021/07/13 04:38:21;;;;;;;40.08;22.23;;;22.50;86.50;;;;;;5011320;28;20030;-71
2021/07/13 04:40:47;;;;;;;40.28;23.95;;;22.50;86.60;;;;;;5024730;28;20028;-71
2021/07/13 04:43:13;;;;;;;40.88;23.75;;;22.50;86.70;;;;;;5018205;28;20534;-69
2021/07/13 04:45:40;;;;;;;40.15;23.77;;;22.50;86.90;;;;;;5013685;28;20037;-69
2021/07/13 04:48:06;;;;;;;37.80;23.20;;;22.50;87.20;;;;;;5013792;28;20033;-69
2021/07/13 04:50:32;;;;;;;33.22;24.83;;;22.50;87.50;;;;;;5012718;28;20092;-69
2021/07/13 04:52:57;;;;;;;37.75;24.48;;;22.50;87.70;;;;;;5018776;28;20026;-69
2021/07/13 04:55:23;;;;;;;39.00;25.20;;;22.50;88.00;;;;;;5011859;28;20485;-69
2021/07/13 04:57:49;;;;;;;40.10;23.00;;;22.50;88.40;;;;;;5015746;28;20378;-69
2021/07/13 05:00:16;;;;;;;40.30;25.42;;;22.50;88.50;;;;;;5023137;28;20029;-69
2021/07/13 05:02:42;;;;;;;34.55;24.67;;;22.50;88.80;;;;;;5020850;28;20034;-69
2021/07/13 05:05:14;;;;;;;34.90;24.48;;;22.60;89.10;;;;;;5022976;28;20902;-69
2021/07/13 05:07:50;;;;;;;35.92;24.40;;;22.60;89.40;;;;;;5020103;28;20030;-69
2021/07/13 05:10:17;;;;;;;38.35;24.20;;;22.50;89.60;;;;;;5017271;28;20025;-68
2021/07/13 05:12:43;;;;;;;32.80;23.65;;;22.60;89.90;;;;;;5022026;28;20030;-68
2021/07/13 05:15:14;;;;;;;30.73;22.42;;;22.60;89.90;;;;;;5025579;28;20049;-69
2021/07/13 05:17:39;;;;;;;30.00;21.75;;;22.60;89.40;;;;;;5020394;28;20470;-69
2021/07/13 05:20:09;;;;;;;36.50;21.35;;;22.50;89.60;;;;;;5020820;28;20037;-69
2021/07/13 05:22:35;;;;;;;32.53;21.75;;;22.60;90.00;;;;;;5020656;28;20040;-69
2021/07/13 05:25:02;;;;;;;30.10;20.58;;;22.50;90.10;;;;;;5028375;28;20041;-70
2021/07/13 05:27:29;;;;;;;35.80;19.50;;;22.60;90.40;;;;;;5020609;28;20030;-69
2021/07/13 05:29:56;;;;;;;25.67;15.27;;;22.60;90.20;;;;;;5020309;28;20030;-70
2021/07/13 05:32:21;;;;;;;32.70;18.35;;;22.60;90.00;;;;;;5025394;28;20041;-70
2021/07/13 05:34:47;;;;;;;31.02;21.15;;;22.60;90.00;;;;;;5019402;28;20037;-70
2021/07/13 05:37:13;;;;;;;30.27;19.63;;;22.60;89.50;;;;;;5023943;28;20026;-70
2021/07/13 05:39:38;;;;;;;34.25;19.45;;;22.70;90.00;;;;;;5022509;28;20033;-68
2021/07/13 05:42:04;;;;;;;31.70;17.50;;;22.70;90.00;;;;;;5024243;28;20432;-69
2021/07/13 05:44:30;;;;;;;29.08;17.90;;;22.70;89.70;;;;;;5023144;28;20037;-69
2021/07/13 05:46:55;;;;;;;30.60;16.02;;;22.70;90.30;;;;;;5025901;28;20049;-69
2021/07/13 05:49:21;;;;;;;26.88;15.32;;;22.80;90.20;;;;;;5019509;28;20292;-69
2021/07/13 05:51:47;;;;;;;27.45;13.85;;;22.80;90.50;;;;;;5021729;28;20033;-70
2021/07/13 05:54:13;;;;;;;27.65;12.25;;;22.80;90.40;;;;;;5022633;28;20038;-70
2021/07/13 05:56:39;;;;;;;22.02;12.98;;;22.80;90.30;;;;;;5020232;28;20026;-70
2021/07/13 05:59:05;;;;;;;25.90;12.00;;;22.90;90.40;;;;;;5014597;28;20512;-69
2021/07/13 06:01:31;;;;;;;22.52;11.88;;;22.90;90.40;;;;;;5018409;28;20076;-69
2021/07/13 06:03:57;;;;;;;21.27;10.88;;;23.00;90.40;;;;;;5014034;28;20461;-69
2021/07/13 06:06:22;;;;;;;28.50;12.43;;;23.00;90.20;;;;;;5014085;28;20056;-70
2021/07/13 06:08:48;;;;;;;21.00;9.70;;;23.00;90.20;;;;;;5018102;28;20025;-69
2021/07/13 06:11:14;;;;;;;23.42;10.35;;;23.10;90.10;;;;;;5017375;28;20064;-69
2021/07/13 06:13:39;;;;;;;40.00;11.70;;;23.10;90.00;;;;;;5016775;28;20022;-69
2021/07/13 06:16:05;;;;;;;25.40;10.57;;;23.10;90.20;;;;;;5019213;28;20050;-68
2021/07/13 06:18:31;;;;;;;22.55;10.45;;;23.10;90.20;;;;;;5017756;28;20033;-69
2021/07/13 06:20:57;;;;;;;19.17;9.85;;;23.20;90.10;;;;;;5015054;28;20481;-68
2021/07/13 06:23:22;;;;;;;29.00;10.55;;;23.20;90.10;;;;;;5015815;28;20026;-71
2021/07/13 06:25:48;;;;;;;19.90;9.52;;;23.20;90.10;;;;;;5020467;28;20038;-72
2021/07/13 06:28:14;;;;;;;18.58;9.40;;;23.20;90.00;;;;;;5018067;28;20354;-72
2021/07/13 06:30:40;;;;;;;21.80;11.13;;;23.20;89.60;;;;;;5014679;28;20494;-72
2021/07/13 06:33:05;;;;;;;24.83;10.13;;;23.20;89.50;;;;;;5022002;28;20474;-73
2021/07/13 06:35:31;;;;;;;19.23;9.85;;;23.20;89.40;;;;;;5020641;28;20057;-74
2021/07/13 06:38:02;;;;;;;24.63;11.40;;;23.20;89.10;;;;;;5021474;28;20045;-72
2021/07/13 06:40:28;;;;;;;23.15;9.95;;;23.30;89.00;;;;;;5018091;28;20526;-70
2021/07/13 06:42:54;;;;;;;20.88;9.73;;;23.30;89.00;;;;;;5019102;28;20046;-70
2021/07/13 06:45:19;;;;;;;20.88;9.77;;;23.40;88.90;;;;;;5026845;28;20385;-69
2021/07/13 06:47:45;;;;;;;17.33;10.02;;;23.50;89.00;;;;;;5022784;28;20114;-70
2021/07/13 06:50:12;;;;;;;19.25;9.52;;;23.50;88.80;;;;;;5019197;28;20033;-71
2021/07/13 06:52:40;;;;;;;20.67;9.60;;;23.50;88.80;;;;;;5029037;28;20025;-71
2021/07/13 06:55:07;;;;;;;14.05;8.48;;;23.50;88.60;;;;;;5022400;28;20042;-71
2021/07/13 06:57:33;;;;;;;16.77;9.63;;;23.50;88.00;;;;;;5025153;28;20053;-71
2021/07/13 06:59:59;;;;;;;23.55;9.25;;;23.60;88.30;;;;;;5020370;28;20061;-67
2021/07/13 07:02:28;;;;;;;17.52;8.88;;;23.60;88.30;;;;;;5029273;28;20485;-68
2021/07/13 07:04:54;;;;;;;24.08;9.63;;;23.70;88.30;;;;;;5025926;28;20029;-69
2021/07/13 07:07:19;;;;;;;20.92;9.30;;;23.60;88.00;;;;;;5016192;28;20060;-71
2021/07/13 07:09:45;;;;;;;26.30;10.50;;;23.70;88.50;;;;;;5031404;28;20083;-69
2021/07/13 07:12:11;;;;;;;22.17;10.70;;;23.70;88.50;;;;;;5019494;28;20125;-68
2021/07/13 07:14:37;;;;;;;14.10;9.38;;;23.80;89.00;;;;;;5011483;28;20775;-68
2021/07/13 07:17:02;;;;;;;15.95;9.50;;;23.80;89.60;;;;;;5012471;28;20477;-69
2021/07/13 07:19:28;;;;;;;18.70;9.65;;;23.90;89.30;;;;;;5011357;28;20390;-69
2021/07/13 07:21:54;;;;;;;18.23;9.13;;;23.90;89.40;;;;;;5011906;28;20030;-69
2021/07/13 07:24:22;;;;;;;20.15;9.30;;;23.90;89.40;;;;;;5015812;28;20386;-69
2021/07/13 07:26:48;;;;;;;15.20;9.90;;;23.90;89.40;;;;;;5025910;28;20088;-69
2021/07/13 07:29:13;;;;;;;17.13;8.30;;;24.00;89.40;;;;;;5021980;28;20034;-69
2021/07/13 07:31:40;;;;;;;18.40;9.15;;;24.00;89.10;;;;;;5028585;28;20021;-69
2021/07/13 07:34:05;;;;;;;14.23;8.07;;;24.00;89.00;;;;;;5015949;28;20117;-69
2021/07/13 07:36:31;;;;;;;15.18;9.40;;;24.10;89.00;;;;;;5021483;28;20464;-69
2021/07/13 07:38:57;;;;;;;41.97;10.43;;;24.10;88.90;;;;;;5013380;28;20041;-69
2021/07/13 07:41:22;;;;;;;17.08;8.50;;;24.10;88.80;;;;;;5027242;28;20040;-69
2021/07/13 07:43:49;;;;;;;17.88;8.68;;;24.20;88.70;;;;;;5020894;28;20030;-69
2021/07/13 07:46:15;;;;;;;13.27;7.47;;;24.20;88.60;;;;;;5022843;28;20086;-69
2021/07/13 07:48:41;;;;;;;15.73;8.10;;;24.20;88.40;;;;;;5019875;28;20551;-69
2021/07/13 07:51:07;;;;;;;19.33;8.48;;;24.20;88.10;;;;;;5032923;28;20124;-69
2021/07/13 07:53:33;;;;;;;21.38;9.75;;;24.20;88.10;;;;;;5023065;28;20030;-69
2021/07/13 07:56:00;;;;;;;21.52;10.20;;;24.30;88.00;;;;;;5024934;28;20029;-69
2021/07/13 07:58:25;;;;;;;17.13;10.20;;;24.30;88.20;;;;;;5019664;28;20025;-69
2021/07/13 08:00:51;;;;;;;34.28;10.98;;;24.30;88.30;;;;;;5030460;28;20036;-69
2021/07/13 08:03:17;;;;;;;19.80;9.65;;;24.40;88.20;;;;;;5017276;28;20053;-69
2021/07/13 08:05:43;;;;;;;16.83;9.90;;;24.40;88.10;;;;;;5032187;28;20034;-69
2021/07/13 08:08:09;;;;;;;13.88;9.35;;;24.40;88.60;;;;;;5026590;28;20029;-69
2021/07/13 08:10:35;;;;;;;15.77;9.20;;;24.40;87.70;;;;;;5018529;28;20025;-68
2021/07/13 08:13:01;;;;;;;19.42;10.07;;;24.40;88.00;;;;;;5019006;28;20056;-69
2021/07/13 08:15:27;;;;;;;14.00;9.98;;;24.40;87.60;;;;;;5024129;28;20050;-69
2021/07/13 08:17:53;;;;;;;16.83;10.30;;;24.50;88.00;;;;;;5017249;28;20033;-69
2021/07/13 08:20:19;;;;;;;19.05;10.80;;;24.50;87.90;;;;;;5011982;28;20469;-69
2021/07/13 08:22:47;;;;;;;18.10;10.10;;;24.50;87.70;;;;;;5018034;28;20025;-69
2021/07/13 08:25:17;;;;;;;18.75;9.18;;;24.50;87.40;;;;;;5023914;28;20045;-69
2021/07/13 08:27:44;;;;;;;16.45;9.25;;;24.50;87.10;;;;;;5018845;28;20105;-69
2021/07/13 08:30:10;;;;;;;15.00;9.65;;;24.60;86.90;;;;;;5020822;28;20033;-69
2021/07/13 08:32:36;;;;;;;19.65;10.05;;;24.60;86.90;;;;;;5026000;28;20580;-69
2021/07/13 08:35:02;;;;;;;17.38;8.95;;;24.70;86.90;;;;;;5020255;28;20025;-69
2021/07/13 08:37:32;;;;;;;22.67;9.85;;;24.80;86.80;;;;;;5019722;28;20160;-69
2021/07/13 08:40:04;;;;;;;21.65;10.18;;;24.80;86.90;;;;;;5018713;28;20026;-69
2021/07/13 08:42:36;;;;;;;13.13;7.57;;;24.80;86.50;;;;;;5022894;28;20036;-71
2021/07/13 08:45:05;;;;;;;11.45;7.57;;;24.80;86.00;;;;;;5013376;28;20065;-71
2021/07/13 08:47:35;;;;;;;15.25;7.60;;;24.90;85.80;;;;;;5012837;28;20840;-72
2021/07/13 08:50:01;;;;;;;18.45;8.38;;;24.90;85.70;;;;;;5012817;28;20049;-73
2021/07/13 08:52:28;;;;;;;17.83;7.90;;;24.90;85.50;;;;;;5029238;28;20021;-73
2021/07/13 08:54:58;;;;;;;13.65;7.43;;;24.90;85.10;;;;;;5018362;28;20037;-72
2021/07/13 08:57:24;;;;;;;15.27;8.35;;;24.90;84.80;;;;;;5019539;28;20125;-74
2021/07/13 08:59:50;;;;;;;14.85;9.15;;;24.90;85.20;;;;;;5023043;28;20156;-74
2021/07/13 09:02:15;;;;;;;15.93;10.20;;;24.90;86.40;;;;;;5014608;28;20788;-73
2021/07/13 09:04:42;;;;;;;15.00;7.85;;;25.00;86.20;;;;;;5018132;28;20051;-74
2021/07/13 09:07:09;;;;;;;19.90;8.25;;;24.90;85.90;;;;;;5020505;28;20037;-74
2021/07/13 09:09:39;;;;;;;16.13;7.30;;;25.00;85.80;;;;;;5026174;28;20045;-74
2021/07/13 09:12:05;;;;;;;16.77;8.25;;;25.00;85.20;;;;;;5024585;28;20033;-75
2021/07/13 09:14:57;;;;;;;24.70;8.23;;;25.00;85.00;;;;;;5019727;28;20714;-74
2021/07/13 09:17:28;;;;;;;18.48;9.52;;;25.00;84.80;;;;;;5018436;28;20151;-73
2021/07/13 09:20:08;;;;;;;15.10;7.75;;;25.00;84.90;;;;;;5022661;28;20037;-77
2021/07/13 09:23:04;;;;;;;15.93;8.13;;;25.10;84.80;;;;;;5021765;28;20034;-76
2021/07/13 09:25:41;;;;;;;44.83;9.05;;;25.20;84.80;;;;;;5021650;28;20067;-77
2021/07/13 09:28:07;;;;;;;19.80;9.10;;;25.10;84.80;;;;;;5015301;28;20030;-74
2021/07/13 09:30:34;;;;;;;16.77;8.43;;;25.20;85.00;;;;;;5019913;28;20056;-73
2021/07/13 09:33:20;;;;;;;16.73;8.20;;;25.20;85.00;;;;;;5014949;28;20029;-73
2021/07/13 09:36:07;;;;;;;22.58;9.27;;;25.20;85.00;;;;;;5014920;28;20057;-74
2021/07/13 09:38:46;;;;;;;15.85;8.75;;;25.20;84.90;;;;;;5019628;28;20030;-73
2021/07/13 09:41:14;;;;;;;15.52;8.18;;;25.20;85.00;;;;;;5022615;28;20109;-73
2021/07/13 09:44:02;;;;;;;19.10;9.32;;;25.20;84.80;;;;;;5018609;28;20064;-73
2021/07/13 09:46:30;;;;;;;14.85;8.70;;;25.20;84.80;;;;;;5018861;28;20507;-75
2021/07/13 09:49:12;;;;;;;15.50;9.05;;;25.20;84.70;;;;;;5017706;28;20028;-74
2021/07/13 09:51:43;;;;;;;14.65;8.30;;;25.30;84.70;;;;;;5018402;28;20037;-74
2021/07/13 09:54:43;;;;;;;22.23;8.32;;;25.30;84.60;;;;;;5017938;28;20349;-74
2021/07/13 09:57:11;;;;;;;17.17;8.85;;;25.30;84.60;;;;;;5026293;28;20041;-71
2021/07/13 09:59:37;;;;;;;16.85;8.48;;;25.30;84.50;;;;;;5027337;28;20036;-70
2021/07/13 10:02:06;;;;;;;16.23;8.30;;;25.30;84.40;;;;;;5017177;28;20038;-71
2021/07/13 10:04:33;;;;;;;16.98;8.50;;;25.30;84.50;;;;;;5019972;28;20481;-70
2021/07/13 10:07:03;;;;;;;21.65;10.30;;;25.30;84.40;;;;;;5015557;28;20042;-70
2021/07/13 10:09:35;;;;;;;16.63;8.30;;;25.30;84.60;;;;;;5015636;28;20478;-70
2021/07/13 10:12:07;;;;;;;15.13;7.90;;;25.30;84.50;;;;;;5030198;28;20056;-70
2021/07/13 10:14:34;;;;;;;18.77;8.27;;;25.30;84.50;;;;;;5019378;28;20041;-70
2021/07/13 10:17:01;;;;;;;18.17;8.63;;;25.40;84.40;;;;;;5022423;28;20465;-70
2021/07/13 10:19:28;;;;;;;16.67;7.70;;;25.40;84.40;;;;;;5022614;28;20040;-74
2021/07/13 10:21:55;;;;;;;19.92;8.65;;;25.40;84.20;;;;;;5021932;28;20044;-73
2021/07/13 10:24:25;;;;;;;18.75;8.45;;;25.40;84.20;;;;;;5026879;28;20121;-73
2021/07/13 10:26:53;;;;;;;13.68;7.80;;;25.40;84.20;;;;;;5023590;28;20029;-73
2021/07/13 10:29:33;;;;;;;18.30;7.90;;;25.40;83.90;;;;;;5026789;28;20025;-72
2021/07/13 10:32:04;;;;;;;13.98;7.85;;;25.40;83.90;;;;;;5025899;28;20099;-72
2021/07/13 10:34:49;;;;;;;14.82;8.23;;;25.40;84.00;;;;;;5015674;28;20095;-73
2021/07/13 10:37:54;;;;;;;19.70;9.00;;;25.40;84.00;;;;;;5024317;28;20801;-72
2021/07/13 10:40:26;;;;;;;21.02;10.27;;;25.40;83.80;;;;;;5012633;28;20109;-71
2021/07/13 10:43:02;;;;;;;27.45;9.82;;;25.40;83.90;;;;;;5019978;28;20032;-72
2021/07/13 10:45:42;;;;;;;17.77;8.80;;;25.40;83.80;;;;;;5023818;28;20054;-70
2021/07/13 10:48:17;;;;;;;15.30;8.20;;;25.40;83.70;;;;;;5015078;28;20030;-70
2021/07/13 10:50:52;;;;;;;16.27;8.43;;;25.40;84.00;;;;;;5014280;28;20025;-70
2021/07/13 10:53:39;;;;;;;11.82;7.60;;;25.50;84.10;;;;;;5015544;28;20033;-70
2021/07/13 10:56:11;;;;;;;19.67;9.95;;;25.50;83.80;;;;;;5015685;28;20041;-70
2021/07/13 10:58:42;;;;;;;14.82;9.15;;;25.50;83.80;;;;;;5012792;28;20540;-70
2021/07/13 11:01:15;;;;;;;15.25;8.45;;;25.60;83.70;;;;;;5015579;28;20038;-72
2021/07/13 11:03:44;;;;;;;20.92;9.55;;;25.60;83.70;;;;;;5022268;28;20034;-72
2021/07/13 11:06:12;;;;;;;18.35;10.52;;;25.60;83.70;;;;;;5026698;28;20051;-72
2021/07/13 11:08:41;;;;;;;22.52;11.13;;;25.60;83.50;;;;;;5024526;28;20548;-72
2021/07/13 11:11:18;;;;;;;28.95;11.80;;;25.60;83.60;;;;;;5014629;28;20030;-70
2021/07/13 11:13:51;;;;;;;22.17;8.90;;;25.60;83.40;;;;;;5017073;28;20030;-71
2021/07/13 11:16:23;;;;;;;20.65;10.23;;;25.60;83.40;;;;;;5016382;28;20486;-71
2021/07/13 11:18:48;;;;;;;16.85;11.45;;;25.60;83.50;;;;;;5018333;28;20096;-71
2021/07/13 11:21:15;;;;;;;21.75;12.57;;;25.60;83.30;;;;;;5027247;28;20026;-71
2021/07/13 11:23:41;;;;;;;20.55;11.98;;;25.60;83.10;;;;;;5018334;28;20025;-71
2021/07/13 11:26:10;;;;;;;18.08;9.25;;;25.60;83.00;;;;;;5023478;28;20463;-71
2021/07/13 11:28:37;;;;;;;18.83;11.43;;;25.60;83.00;;;;;;5020243;28;20029;-71
2021/07/13 11:31:03;;;;;;;16.45;9.68;;;25.60;83.10;;;;;;5033682;28;20033;-71
2021/07/13 11:33:32;;;;;;;26.00;11.73;;;25.60;83.10;;;;;;5014117;28;20030;-72
2021/07/13 11:36:00;;;;;;;25.50;13.55;;;25.60;83.10;;;;;;5022683;28;20038;-72
2021/07/13 11:38:29;;;;;;;22.33;12.60;;;25.60;83.10;;;;;;5017551;28;20060;-73
2021/07/13 11:41:15;;;;;;;23.77;14.30;;;25.60;83.30;;;;;;5017097;28;20107;-75
2021/07/13 11:43:41;;;;;;;24.33;14.50;;;25.70;83.50;;;;;;5019412;28;20030;-79
2021/07/13 11:46:10;;;;;;;21.23;12.40;;;25.60;83.20;;;;;;5032115;28;20056;-73
2021/07/13 11:48:37;;;;;;;26.23;15.32;;;25.60;83.20;;;;;;5014477;28;20022;-73
2021/07/13 11:51:03;;;;;;;27.77;13.80;;;25.70;83.30;;;;;;5019159;28;20078;-71
2021/07/13 11:53:35;;;;;;;23.20;13.65;;;25.60;83.20;;;;;;5017437;28;20057;-71
2021/07/13 11:56:02;;;;;;;24.50;13.93;;;25.60;83.00;;;;;;5014974;28;20042;-71
2021/07/13 11:58:30;;;;;;;21.55;12.77;;;25.60;83.00;;;;;;5005103;28;20420;-70
2021/07/13 12:01:34;;;;;;;22.13;14.38;;;25.60;83.30;;;;;;5019153;28;20033;-71
2021/07/13 12:04:03;;;;;;;22.50;13.10;;;25.60;83.00;;;;;;5008450;28;20034;-71
2021/07/13 12:06:29;;;;;;;30.27;14.75;;;25.60;83.00;;;;;;5009860;28;20401;-71
2021/07/13 12:09:04;;;;;;;30.00;15.35;;;25.60;82.90;;;;;;5017339;28;20418;-71
2021/07/13 12:11:33;;;;;;;22.25;13.60;;;25.60;82.80;;;;;;5011067;28;20033;-71
2021/07/13 12:14:01;;;;;;;26.05;15.27;;;25.60;82.90;;;;;;5014274;28;20036;-71
2021/07/13 12:16:31;;;;;;;28.13;16.88;;;25.60;82.90;;;;;;5021926;28;20041;-71
2021/07/13 12:19:00;;;;;;;29.27;16.73;;;25.60;82.80;;;;;;5036060;28;20484;-71
2021/07/13 12:21:25;;;;;;;31.38;18.10;;;25.60;83.00;;;;;;5022285;28;20030;-70
2021/07/13 12:23:53;;;;;;;34.08;17.63;;;25.60;83.10;;;;;;5011558;28;20116;-70
2021/07/13 12:26:30;;;;;;;32.47;18.33;;;25.60;83.10;;;;;;5012378;28;20064;-70
2021/07/13 12:29:07;;;;;;;35.25;19.08;;;25.50;83.10;;;;;;5011840;28;20044;-70
2021/07/13 12:31:36;;;;;;;33.05;18.60;;;25.50;82.90;;;;;;5017626;28;20060;-70
2021/07/13 12:34:07;;;;;;;39.25;19.75;;;25.50;82.90;;;;;;5032246;28;20025;-70
2021/07/13 12:36:36;;;;;;;34.47;18.55;;;25.50;82.90;;;;;;5014863;28;20121;-70
2021/07/13 12:39:19;;;;;;;39.42;20.13;;;25.50;83.20;;;;;;5014163;28;20377;-70